sensor_id;sensor_type;location;lat;lon;timestamp;temperature;humidity
68801;SHT31;55784;50.734;7.086;2023-04-30T00:01:27;9.84;92.89
68801;SHT31;55784;50.734;7.086;2023-04-30T00:03:52;9.91;93.13
68801;SHT31;55784;50.734;7.086;2023-04-30T00:06:17;9.91;93.02
68801;SHT31;55784;50.734;7.086;2023-04-30T00:08:43;9.81;93.29
68801;SHT31;55784;50.734;7.086;2023-04-30T00:11:08;9.74;93.73
68801;SHT31;55784;50.734;7.086;2023-04-30T00:13:33;9.63;94.01
68801;SHT31;55784;50.734;7.086;2023-04-30T00:15:59;9.58;94.09
68801;SHT31;55784;50.734;7.086;2023-04-30T00:18:24;9.48;94.28
68801;SHT31;55784;50.734;7.086;2023-04-30T00:20:49;9.43;94.33
68801;SHT31;55784;50.734;7.086;2023-04-30T00:23:16;9.40;94.40
68801;SHT31;55784;50.734;7.086;2023-04-30T00:25:41;9.39;94.63
68801;SHT31;55784;50.734;7.086;2023-04-30T00:28:07;9.40;94.85
68801;SHT31;55784;50.734;7.086;2023-04-30T00:30:32;9.34;94.90
68801;SHT31;55784;50.734;7.086;2023-04-30T00:32:57;9.29;95.10
68801;SHT31;55784;50.734;7.086;2023-04-30T00:35:22;9.24;95.47
68801;SHT31;55784;50.734;7.086;2023-04-30T00:37:48;9.18;95.30
68801;SHT31;55784;50.734;7.086;2023-04-30T00:40:13;9.10;95.40
68801;SHT31;55784;50.734;7.086;2023-04-30T00:42:38;9.08;95.43
68801;SHT31;55784;50.734;7.086;2023-04-30T00:45:04;9.05;95.52
68801;SHT31;55784;50.734;7.086;2023-04-30T00:47:30;9.09;95.64
68801;SHT31;55784;50.734;7.086;2023-04-30T00:49:56;9.03;95.78
68801;SHT31;55784;50.734;7.086;2023-04-30T00:52:21;8.95;95.83
68801;SHT31;55784;50.734;7.086;2023-04-30T00:54:47;8.92;95.95
68801;SHT31;55784;50.734;7.086;2023-04-30T00:57:12;8.93;96.01
68801;SHT31;55784;50.734;7.086;2023-04-30T00:59:38;8.88;96.22
68801;SHT31;55784;50.734;7.086;2023-04-30T01:02:05;8.95;96.11
68801;SHT31;55784;50.734;7.086;2023-04-30T01:04:30;8.86;95.96
68801;SHT31;55784;50.734;7.086;2023-04-30T01:06:58;8.78;95.99
68801;SHT31;55784;50.734;7.086;2023-04-30T01:09:26;8.72;96.07
68801;SHT31;55784;50.734;7.086;2023-04-30T01:11:59;8.71;96.20
68801;SHT31;55784;50.734;7.086;2023-04-30T01:14:30;8.65;96.21
68801;SHT31;55784;50.734;7.086;2023-04-30T01:19:52;8.54;96.33
68801;SHT31;55784;50.734;7.086;2023-04-30T01:22:24;8.49;96.40
68801;SHT31;55784;50.734;7.086;2023-04-30T01:28:02;8.44;96.53
68801;SHT31;55784;50.734;7.086;2023-04-30T01:30:32;8.45;96.54
68801;SHT31;55784;50.734;7.086;2023-04-30T01:32:58;8.40;96.54
68801;SHT31;55784;50.734;7.086;2023-04-30T01:35:35;8.36;96.51
68801;SHT31;55784;50.734;7.086;2023-04-30T01:40:58;8.37;96.56
68801;SHT31;55784;50.734;7.086;2023-04-30T01:43:38;8.37;96.50
68801;SHT31;55784;50.734;7.086;2023-04-30T01:51:41;8.27;96.47
68801;SHT31;55784;50.734;7.086;2023-04-30T01:54:26;8.20;96.51
68801;SHT31;55784;50.734;7.086;2023-04-30T01:57:00;8.17;96.49
68801;SHT31;55784;50.734;7.086;2023-04-30T01:59:29;8.14;96.53
68801;SHT31;55784;50.734;7.086;2023-04-30T02:01:56;8.14;96.45
68801;SHT31;55784;50.734;7.086;2023-04-30T02:04:21;8.10;96.47
68801;SHT31;55784;50.734;7.086;2023-04-30T02:06:46;8.04;96.45
68801;SHT31;55784;50.734;7.086;2023-04-30T02:09:11;8.01;96.75
68801;SHT31;55784;50.734;7.086;2023-04-30T02:11:37;7.93;96.72
68801;SHT31;55784;50.734;7.086;2023-04-30T02:14:02;7.89;96.74
68801;SHT31;55784;50.734;7.086;2023-04-30T02:16:27;7.84;96.86
68801;SHT31;55784;50.734;7.086;2023-04-30T02:18:53;7.79;96.88
68801;SHT31;55784;50.734;7.086;2023-04-30T02:21:18;7.77;96.89
68801;SHT31;55784;50.734;7.086;2023-04-30T02:23:43;7.72;96.90
68801;SHT31;55784;50.734;7.086;2023-04-30T02:26:09;7.66;96.94
68801;SHT31;55784;50.734;7.086;2023-04-30T02:28:34;7.65;97.54
68801;SHT31;55784;50.734;7.086;2023-04-30T02:31:00;7.75;97.82
68801;SHT31;55784;50.734;7.086;2023-04-30T02:33:25;7.79;97.73
68801;SHT31;55784;50.734;7.086;2023-04-30T02:35:50;7.73;97.77
68801;SHT31;55784;50.734;7.086;2023-04-30T02:38:16;7.63;97.70
68801;SHT31;55784;50.734;7.086;2023-04-30T02:40:41;7.56;97.75
68801;SHT31;55784;50.734;7.086;2023-04-30T02:43:07;7.48;97.74
68801;SHT31;55784;50.734;7.086;2023-04-30T02:45:32;7.45;97.99
68801;SHT31;55784;50.734;7.086;2023-04-30T02:47:58;7.41;98.38
68801;SHT31;55784;50.734;7.086;2023-04-30T02:50:23;7.45;98.47
68801;SHT31;55784;50.734;7.086;2023-04-30T02:52:48;7.48;98.59
68801;SHT31;55784;50.734;7.086;2023-04-30T02:55:14;7.49;98.51
68801;SHT31;55784;50.734;7.086;2023-04-30T02:57:39;7.52;98.45
68801;SHT31;55784;50.734;7.086;2023-04-30T03:00:05;7.45;98.33
68801;SHT31;55784;50.734;7.086;2023-04-30T03:02:31;7.36;98.32
68801;SHT31;55784;50.734;7.086;2023-04-30T03:04:56;7.31;98.17
68801;SHT31;55784;50.734;7.086;2023-04-30T03:07:21;7.26;98.18
68801;SHT31;55784;50.734;7.086;2023-04-30T03:09:47;7.21;98.13
68801;SHT31;55784;50.734;7.086;2023-04-30T03:12:12;7.18;98.07
68801;SHT31;55784;50.734;7.086;2023-04-30T03:14:38;7.14;98.06
68801;SHT31;55784;50.734;7.086;2023-04-30T03:17:04;7.08;98.01
68801;SHT31;55784;50.734;7.086;2023-04-30T03:19:29;7.09;97.92
68801;SHT31;55784;50.734;7.086;2023-04-30T03:21:54;7.08;97.80
68801;SHT31;55784;50.734;7.086;2023-04-30T03:24:20;6.98;97.85
68801;SHT31;55784;50.734;7.086;2023-04-30T03:26:46;6.94;97.82
68801;SHT31;55784;50.734;7.086;2023-04-30T03:29:11;6.91;97.99
68801;SHT31;55784;50.734;7.086;2023-04-30T03:31:37;6.92;97.80
68801;SHT31;55784;50.734;7.086;2023-04-30T03:34:02;6.92;98.22
68801;SHT31;55784;50.734;7.086;2023-04-30T03:36:28;6.92;98.12
68801;SHT31;55784;50.734;7.086;2023-04-30T03:38:53;6.91;98.09
68801;SHT31;55784;50.734;7.086;2023-04-30T03:41:18;6.97;99.03
68801;SHT31;55784;50.734;7.086;2023-04-30T03:43:44;6.94;98.83
68801;SHT31;55784;50.734;7.086;2023-04-30T03:46:09;6.92;98.82
68801;SHT31;55784;50.734;7.086;2023-04-30T03:48:34;6.87;99.10
68801;SHT31;55784;50.734;7.086;2023-04-30T03:51:00;6.90;99.05
68801;SHT31;55784;50.734;7.086;2023-04-30T03:53:25;6.85;99.51
68801;SHT31;55784;50.734;7.086;2023-04-30T03:55:51;6.87;99.43
68801;SHT31;55784;50.734;7.086;2023-04-30T03:58:17;6.88;99.32
68801;SHT31;55784;50.734;7.086;2023-04-30T04:00:42;6.90;99.38
68801;SHT31;55784;50.734;7.086;2023-04-30T04:03:10;6.90;99.51
68801;SHT31;55784;50.734;7.086;2023-04-30T04:05:35;6.90;99.47
68801;SHT31;55784;50.734;7.086;2023-04-30T04:08:01;6.95;99.55
68801;SHT31;55784;50.734;7.086;2023-04-30T04:10:26;6.92;99.49
68801;SHT31;55784;50.734;7.086;2023-04-30T04:12:51;6.95;99.54
68801;SHT31;55784;50.734;7.086;2023-04-30T04:15:17;6.97;99.58
68801;SHT31;55784;50.734;7.086;2023-04-30T04:17:42;6.98;99.80
68801;SHT31;55784;50.734;7.086;2023-04-30T04:20:08;6.92;99.99
68801;SHT31;55784;50.734;7.086;2023-04-30T04:22:33;6.88;99.99
68801;SHT31;55784;50.734;7.086;2023-04-30T04:24:58;6.84;99.99
68801;SHT31;55784;50.734;7.086;2023-04-30T04:27:24;6.85;99.99
68801;SHT31;55784;50.734;7.086;2023-04-30T04:29:49;6.87;99.99
68801;SHT31;55784;50.734;7.086;2023-04-30T04:32:15;6.87;99.99
68801;SHT31;55784;50.734;7.086;2023-04-30T04:34:40;6.95;99.99
68801;SHT31;55784;50.734;7.086;2023-04-30T04:37:07;6.97;99.99
68801;SHT31;55784;50.734;7.086;2023-04-30T04:39:32;7.08;99.99
68801;SHT31;55784;50.734;7.086;2023-04-30T04:41:57;7.15;99.99
68801;SHT31;55784;50.734;7.086;2023-04-30T04:44:23;7.31;99.99
68801;SHT31;55784;50.734;7.086;2023-04-30T04:46:48;7.45;99.99
68801;SHT31;55784;50.734;7.086;2023-04-30T04:49:18;7.56;99.99
68801;SHT31;55784;50.734;7.086;2023-04-30T04:51:43;7.70;99.99
68801;SHT31;55784;50.734;7.086;2023-04-30T04:54:08;7.79;99.99
68801;SHT31;55784;50.734;7.086;2023-04-30T04:56:34;7.86;99.99
68801;SHT31;55784;50.734;7.086;2023-04-30T04:59:00;7.91;99.99
68801;SHT31;55784;50.734;7.086;2023-04-30T05:01:25;7.96;99.99
68801;SHT31;55784;50.734;7.086;2023-04-30T05:03:51;7.98;99.99
68801;SHT31;55784;50.734;7.086;2023-04-30T05:06:17;8.01;99.99
68801;SHT31;55784;50.734;7.086;2023-04-30T05:08:43;8.08;99.99
68801;SHT31;55784;50.734;7.086;2023-04-30T05:11:08;8.11;99.98
68801;SHT31;55784;50.734;7.086;2023-04-30T05:13:34;8.14;99.94
68801;SHT31;55784;50.734;7.086;2023-04-30T05:15:59;8.20;99.91
68801;SHT31;55784;50.734;7.086;2023-04-30T05:18:25;8.18;99.64
68801;SHT31;55784;50.734;7.086;2023-04-30T05:20:50;8.21;99.08
68801;SHT31;55784;50.734;7.086;2023-04-30T05:23:15;8.11;97.55
68801;SHT31;55784;50.734;7.086;2023-04-30T05:25:41;8.26;98.00
68801;SHT31;55784;50.734;7.086;2023-04-30T05:28:06;8.40;97.98
68801;SHT31;55784;50.734;7.086;2023-04-30T05:30:32;8.48;97.03
68801;SHT31;55784;50.734;7.086;2023-04-30T05:32:57;8.59;96.42
68801;SHT31;55784;50.734;7.086;2023-04-30T05:35:22;8.55;94.51
68801;SHT31;55784;50.734;7.086;2023-04-30T05:37:48;8.55;93.83
68801;SHT31;55784;50.734;7.086;2023-04-30T05:40:13;8.65;93.79
68801;SHT31;55784;50.734;7.086;2023-04-30T05:42:40;8.78;93.11
68801;SHT31;55784;50.734;7.086;2023-04-30T05:45:08;8.89;92.80
68801;SHT31;55784;50.734;7.086;2023-04-30T05:47:33;8.96;92.20
68801;SHT31;55784;50.734;7.086;2023-04-30T05:49:58;9.10;91.96
68801;SHT31;55784;50.734;7.086;2023-04-30T05:52:24;9.19;91.50
68801;SHT31;55784;50.734;7.086;2023-04-30T05:54:49;9.27;91.25
68801;SHT31;55784;50.734;7.086;2023-04-30T05:57:14;9.27;90.78
68801;SHT31;55784;50.734;7.086;2023-04-30T05:59:40;9.46;91.09
68801;SHT31;55784;50.734;7.086;2023-04-30T06:02:05;9.58;91.11
68801;SHT31;55784;50.734;7.086;2023-04-30T06:04:31;9.64;90.57
68801;SHT31;55784;50.734;7.086;2023-04-30T06:06:56;9.81;90.54
68801;SHT31;55784;50.734;7.086;2023-04-30T06:09:21;9.71;90.64
68801;SHT31;55784;50.734;7.086;2023-04-30T06:11:47;9.88;90.48
68801;SHT31;55784;50.734;7.086;2023-04-30T06:14:15;9.99;90.32
68801;SHT31;55784;50.734;7.086;2023-04-30T06:16:41;9.98;90.09
68801;SHT31;55784;50.734;7.086;2023-04-30T06:19:06;10.15;89.78
68801;SHT31;55784;50.734;7.086;2023-04-30T06:21:31;10.18;89.10
68801;SHT31;55784;50.734;7.086;2023-04-30T06:23:57;10.25;88.79
68801;SHT31;55784;50.734;7.086;2023-04-30T06:26:22;10.24;88.56
68801;SHT31;55784;50.734;7.086;2023-04-30T06:28:47;10.28;88.50
68801;SHT31;55784;50.734;7.086;2023-04-30T06:31:13;10.18;88.53
68801;SHT31;55784;50.734;7.086;2023-04-30T06:33:38;10.29;88.46
68801;SHT31;55784;50.734;7.086;2023-04-30T06:36:04;10.38;88.37
68801;SHT31;55784;50.734;7.086;2023-04-30T06:38:30;10.59;88.11
68801;SHT31;55784;50.734;7.086;2023-04-30T06:40:55;10.76;87.44
68801;SHT31;55784;50.734;7.086;2023-04-30T06:43:20;10.96;86.74
68801;SHT31;55784;50.734;7.086;2023-04-30T06:45:46;11.19;85.85
68801;SHT31;55784;50.734;7.086;2023-04-30T06:48:11;11.19;84.70
68801;SHT31;55784;50.734;7.086;2023-04-30T06:50:37;11.31;84.46
68801;SHT31;55784;50.734;7.086;2023-04-30T06:53:11;11.47;84.10
68801;SHT31;55784;50.734;7.086;2023-04-30T06:55:36;11.79;83.36
68801;SHT31;55784;50.734;7.086;2023-04-30T06:58:02;12.09;82.29
68801;SHT31;55784;50.734;7.086;2023-04-30T07:00:27;12.30;81.32
68801;SHT31;55784;50.734;7.086;2023-04-30T07:02:52;12.46;80.76
68801;SHT31;55784;50.734;7.086;2023-04-30T07:05:19;12.32;79.92
68801;SHT31;55784;50.734;7.086;2023-04-30T07:07:44;11.77;81.81
68801;SHT31;55784;50.734;7.086;2023-04-30T07:10:10;11.51;82.85
68801;SHT31;55784;50.734;7.086;2023-04-30T07:12:35;11.14;84.55
68801;SHT31;55784;50.734;7.086;2023-04-30T07:15:01;11.27;84.35
68801;SHT31;55784;50.734;7.086;2023-04-30T07:17:27;11.27;84.30
68801;SHT31;55784;50.734;7.086;2023-04-30T07:19:53;11.13;84.54
68801;SHT31;55784;50.734;7.086;2023-04-30T07:22:18;11.20;84.48
68801;SHT31;55784;50.734;7.086;2023-04-30T07:24:44;11.20;84.60
68801;SHT31;55784;50.734;7.086;2023-04-30T07:27:09;11.07;85.35
68801;SHT31;55784;50.734;7.086;2023-04-30T07:29:34;11.00;85.38
68801;SHT31;55784;50.734;7.086;2023-04-30T07:32:00;11.00;85.96
68801;SHT31;55784;50.734;7.086;2023-04-30T07:34:25;10.95;86.21
68801;SHT31;55784;50.734;7.086;2023-04-30T07:36:52;10.93;86.10
68801;SHT31;55784;50.734;7.086;2023-04-30T07:39:17;10.96;86.57
68801;SHT31;55784;50.734;7.086;2023-04-30T07:41:42;11.00;86.05
68801;SHT31;55784;50.734;7.086;2023-04-30T07:46:45;11.14;85.80
68801;SHT31;55784;50.734;7.086;2023-04-30T07:49:11;11.16;85.49
68801;SHT31;55784;50.734;7.086;2023-04-30T07:51:36;11.14;85.83
68801;SHT31;55784;50.734;7.086;2023-04-30T07:54:01;11.24;85.69
68801;SHT31;55784;50.734;7.086;2023-04-30T07:56:28;11.44;85.51
68801;SHT31;55784;50.734;7.086;2023-04-30T07:58:53;11.38;85.18
68801;SHT31;55784;50.734;7.086;2023-04-30T08:01:18;11.35;85.36
68801;SHT31;55784;50.734;7.086;2023-04-30T08:03:43;11.48;85.25
68801;SHT31;55784;50.734;7.086;2023-04-30T08:06:09;11.60;85.09
68801;SHT31;55784;50.734;7.086;2023-04-30T08:08:34;11.74;84.77
68801;SHT31;55784;50.734;7.086;2023-04-30T08:10:59;11.93;84.48
68801;SHT31;55784;50.734;7.086;2023-04-30T08:13:25;12.02;83.18
68801;SHT31;55784;50.734;7.086;2023-04-30T08:15:50;12.08;82.17
68801;SHT31;55784;50.734;7.086;2023-04-30T08:18:15;12.23;81.85
68801;SHT31;55784;50.734;7.086;2023-04-30T08:20:41;12.18;81.80
68801;SHT31;55784;50.734;7.086;2023-04-30T08:23:06;12.16;81.19
68801;SHT31;55784;50.734;7.086;2023-04-30T08:25:31;12.33;81.07
68801;SHT31;55784;50.734;7.086;2023-04-30T08:27:57;12.47;80.61
68801;SHT31;55784;50.734;7.086;2023-04-30T08:30:22;12.37;81.04
68801;SHT31;55784;50.734;7.086;2023-04-30T08:32:49;12.49;80.85
68801;SHT31;55784;50.734;7.086;2023-04-30T08:35:14;12.59;80.91
68801;SHT31;55784;50.734;7.086;2023-04-30T08:37:41;12.76;80.40
68801;SHT31;55784;50.734;7.086;2023-04-30T08:40:06;12.95;80.10
68801;SHT31;55784;50.734;7.086;2023-04-30T08:42:35;12.79;80.11
68801;SHT31;55784;50.734;7.086;2023-04-30T08:45:02;12.91;79.38
68801;SHT31;55784;50.734;7.086;2023-04-30T08:47:28;13.05;76.82
68801;SHT31;55784;50.734;7.086;2023-04-30T08:49:53;13.04;75.57
68801;SHT31;55784;50.734;7.086;2023-04-30T08:52:20;13.21;76.12
68801;SHT31;55784;50.734;7.086;2023-04-30T08:54:47;13.29;75.53
68801;SHT31;55784;50.734;7.086;2023-04-30T08:57:12;13.38;75.32
68801;SHT31;55784;50.734;7.086;2023-04-30T08:59:38;13.41;75.32
68801;SHT31;55784;50.734;7.086;2023-04-30T09:02:03;13.42;74.88
68801;SHT31;55784;50.734;7.086;2023-04-30T09:04:29;13.59;74.65
68801;SHT31;55784;50.734;7.086;2023-04-30T09:06:54;13.73;73.68
68801;SHT31;55784;50.734;7.086;2023-04-30T09:09:27;13.89;73.01
68801;SHT31;55784;50.734;7.086;2023-04-30T09:11:52;14.00;69.96
68801;SHT31;55784;50.734;7.086;2023-04-30T09:14:23;14.16;68.77
68801;SHT31;55784;50.734;7.086;2023-04-30T09:16:52;14.38;67.25
68801;SHT31;55784;50.734;7.086;2023-04-30T09:19:25;14.33;65.76
68801;SHT31;55784;50.734;7.086;2023-04-30T09:21:51;14.53;66.41
68801;SHT31;55784;50.734;7.086;2023-04-30T09:24:16;14.78;63.92
68801;SHT31;55784;50.734;7.086;2023-04-30T09:26:42;14.75;62.19
68801;SHT31;55784;50.734;7.086;2023-04-30T09:29:07;14.80;64.31
68801;SHT31;55784;50.734;7.086;2023-04-30T09:31:36;14.78;63.87
68801;SHT31;55784;50.734;7.086;2023-04-30T09:34:02;14.85;63.60
68801;SHT31;55784;50.734;7.086;2023-04-30T09:36:28;14.88;62.95
68801;SHT31;55784;50.734;7.086;2023-04-30T09:38:54;15.09;63.77
68801;SHT31;55784;50.734;7.086;2023-04-30T09:41:27;15.11;61.29
68801;SHT31;55784;50.734;7.086;2023-04-30T09:43:53;15.28;60.87
68801;SHT31;55784;50.734;7.086;2023-04-30T09:46:20;15.35;59.41
68801;SHT31;55784;50.734;7.086;2023-04-30T09:48:46;15.67;58.89
68801;SHT31;55784;50.734;7.086;2023-04-30T09:51:11;15.59;56.89
68801;SHT31;55784;50.734;7.086;2023-04-30T09:53:40;15.65;55.63
68801;SHT31;55784;50.734;7.086;2023-04-30T09:56:07;15.77;57.09
68801;SHT31;55784;50.734;7.086;2023-04-30T09:58:35;15.65;54.94
68801;SHT31;55784;50.734;7.086;2023-04-30T10:01:07;15.85;55.04
68801;SHT31;55784;50.734;7.086;2023-04-30T10:03:32;16.04;53.66
68801;SHT31;55784;50.734;7.086;2023-04-30T10:05:59;16.22;54.31
68801;SHT31;55784;50.734;7.086;2023-04-30T10:08:33;16.42;54.82
68801;SHT31;55784;50.734;7.086;2023-04-30T10:11:05;16.59;54.08
68801;SHT31;55784;50.734;7.086;2023-04-30T10:13:34;16.69;53.12
68801;SHT31;55784;50.734;7.086;2023-04-30T10:16:07;16.59;53.51
68801;SHT31;55784;50.734;7.086;2023-04-30T10:18:41;16.81;57.00
68801;SHT31;55784;50.734;7.086;2023-04-30T10:21:11;16.44;54.41
68801;SHT31;55784;50.734;7.086;2023-04-30T10:23:38;16.45;54.73
68801;SHT31;55784;50.734;7.086;2023-04-30T10:26:09;16.54;55.09
68801;SHT31;55784;50.734;7.086;2023-04-30T10:28:36;16.89;53.91
68801;SHT31;55784;50.734;7.086;2023-04-30T10:31:02;16.62;54.59
68801;SHT31;55784;50.734;7.086;2023-04-30T10:36:12;16.61;54.81
68801;SHT31;55784;50.734;7.086;2023-04-30T10:38:39;16.79;54.16
68801;SHT31;55784;50.734;7.086;2023-04-30T10:41:05;16.79;53.77
68801;SHT31;55784;50.734;7.086;2023-04-30T10:43:32;17.08;53.98
68801;SHT31;55784;50.734;7.086;2023-04-30T10:45:59;17.20;52.49
68801;SHT31;55784;50.734;7.086;2023-04-30T10:48:25;17.20;52.30
68801;SHT31;55784;50.734;7.086;2023-04-30T10:50:56;17.59;51.98
68801;SHT31;55784;50.734;7.086;2023-04-30T10:53:22;17.64;51.27
68801;SHT31;55784;50.734;7.086;2023-04-30T10:56:00;17.91;50.50
68801;SHT31;55784;50.734;7.086;2023-04-30T10:58:32;18.41;50.29
68801;SHT31;55784;50.734;7.086;2023-04-30T11:01:07;18.48;48.40
68801;SHT31;55784;50.734;7.086;2023-04-30T11:03:36;18.42;47.72
68801;SHT31;55784;50.734;7.086;2023-04-30T11:06:10;18.79;47.43
68801;SHT31;55784;50.734;7.086;2023-04-30T11:08:36;19.00;47.82
68801;SHT31;55784;50.734;7.086;2023-04-30T11:11:07;18.89;46.51
68801;SHT31;55784;50.734;7.086;2023-04-30T11:13:41;19.09;47.15
68801;SHT31;55784;50.734;7.086;2023-04-30T11:16:08;19.14;45.91
68801;SHT31;55784;50.734;7.086;2023-04-30T11:18:34;19.04;46.52
68801;SHT31;55784;50.734;7.086;2023-04-30T11:21:07;19.27;47.09
68801;SHT31;55784;50.734;7.086;2023-04-30T11:23:33;19.35;46.91
68801;SHT31;55784;50.734;7.086;2023-04-30T11:25:59;19.64;45.50
68801;SHT31;55784;50.734;7.086;2023-04-30T11:28:26;19.72;45.30
68801;SHT31;55784;50.734;7.086;2023-04-30T11:30:57;18.90;46.34
68801;SHT31;55784;50.734;7.086;2023-04-30T11:33:24;18.69;45.90
68801;SHT31;55784;50.734;7.086;2023-04-30T11:35:50;19.07;47.44
68801;SHT31;55784;50.734;7.086;2023-04-30T11:38:19;19.21;47.86
68801;SHT31;55784;50.734;7.086;2023-04-30T11:40:46;19.27;45.87
68801;SHT31;55784;50.734;7.086;2023-04-30T11:43:29;19.02;46.08
68801;SHT31;55784;50.734;7.086;2023-04-30T11:46:16;19.09;46.01
68801;SHT31;55784;50.734;7.086;2023-04-30T11:48:45;19.09;47.32
68801;SHT31;55784;50.734;7.086;2023-04-30T11:51:21;18.79;46.41
68801;SHT31;55784;50.734;7.086;2023-04-30T11:53:52;18.44;46.83
68801;SHT31;55784;50.734;7.086;2023-04-30T11:56:22;18.52;47.41
68801;SHT31;55784;50.734;7.086;2023-04-30T11:58:50;18.63;47.86
68801;SHT31;55784;50.734;7.086;2023-04-30T12:01:16;18.92;46.54
68801;SHT31;55784;50.734;7.086;2023-04-30T12:03:47;18.97;46.17
68801;SHT31;55784;50.734;7.086;2023-04-30T12:06:26;18.62;46.47
68801;SHT31;55784;50.734;7.086;2023-04-30T12:08:53;18.95;45.70
68801;SHT31;55784;50.734;7.086;2023-04-30T12:11:24;18.95;45.93
68801;SHT31;55784;50.734;7.086;2023-04-30T12:13:55;19.40;45.23
68801;SHT31;55784;50.734;7.086;2023-04-30T12:16:23;19.55;44.09
68801;SHT31;55784;50.734;7.086;2023-04-30T12:18:49;19.30;44.74
68801;SHT31;55784;50.734;7.086;2023-04-30T12:21:16;19.65;44.84
68801;SHT31;55784;50.734;7.086;2023-04-30T12:23:42;19.64;44.65
68801;SHT31;55784;50.734;7.086;2023-04-30T12:26:09;19.44;45.09
68801;SHT31;55784;50.734;7.086;2023-04-30T12:28:34;19.91;45.11
68801;SHT31;55784;50.734;7.086;2023-04-30T12:31:00;19.78;44.35
68801;SHT31;55784;50.734;7.086;2023-04-30T12:33:31;19.44;45.14
68801;SHT31;55784;50.734;7.086;2023-04-30T12:35:56;19.16;45.71
68801;SHT31;55784;50.734;7.086;2023-04-30T12:38:23;18.82;46.03
68801;SHT31;55784;50.734;7.086;2023-04-30T12:40:48;18.66;46.28
68801;SHT31;55784;50.734;7.086;2023-04-30T12:43:15;18.92;45.97
68801;SHT31;55784;50.734;7.086;2023-04-30T12:45:54;18.96;44.97
68801;SHT31;55784;50.734;7.086;2023-04-30T12:48:21;19.28;46.12
68801;SHT31;55784;50.734;7.086;2023-04-30T12:50:59;19.53;45.30
68801;SHT31;55784;50.734;7.086;2023-04-30T12:53:30;20.01;44.65
68801;SHT31;55784;50.734;7.086;2023-04-30T12:56:25;20.37;43.81
68801;SHT31;55784;50.734;7.086;2023-04-30T12:58:50;20.29;42.64
68801;SHT31;55784;50.734;7.086;2023-04-30T13:01:19;20.09;43.09
68801;SHT31;55784;50.734;7.086;2023-04-30T13:03:46;20.76;41.74
68801;SHT31;55784;50.734;7.086;2023-04-30T13:06:15;21.31;41.85
68801;SHT31;55784;50.734;7.086;2023-04-30T13:08:43;21.75;40.95
68801;SHT31;55784;50.734;7.086;2023-04-30T13:11:09;22.12;40.15
68801;SHT31;55784;50.734;7.086;2023-04-30T13:13:35;22.44;39.07
68801;SHT31;55784;50.734;7.086;2023-04-30T13:16:00;22.70;39.21
68801;SHT31;55784;50.734;7.086;2023-04-30T13:18:26;21.78;39.71
68801;SHT31;55784;50.734;7.086;2023-04-30T13:20:52;20.69;41.89
68801;SHT31;55784;50.734;7.086;2023-04-30T13:23:17;20.57;42.19
68801;SHT31;55784;50.734;7.086;2023-04-30T13:25:43;20.11;43.39
68801;SHT31;55784;50.734;7.086;2023-04-30T13:28:08;20.21;43.11
68801;SHT31;55784;50.734;7.086;2023-04-30T13:30:37;20.15;43.12
68801;SHT31;55784;50.734;7.086;2023-04-30T13:33:09;20.18;43.31
68801;SHT31;55784;50.734;7.086;2023-04-30T13:35:45;20.52;42.73
68801;SHT31;55784;50.734;7.086;2023-04-30T13:38:11;20.36;43.03
68801;SHT31;55784;50.734;7.086;2023-04-30T13:40:45;20.54;42.89
68801;SHT31;55784;50.734;7.086;2023-04-30T13:43:11;21.04;44.30
68801;SHT31;55784;50.734;7.086;2023-04-30T13:45:37;20.54;42.71
68801;SHT31;55784;50.734;7.086;2023-04-30T13:48:03;20.63;42.39
68801;SHT31;55784;50.734;7.086;2023-04-30T13:50:28;20.46;42.83
68801;SHT31;55784;50.734;7.086;2023-04-30T13:52:53;20.30;42.88
68801;SHT31;55784;50.734;7.086;2023-04-30T13:55:19;20.42;43.44
68801;SHT31;55784;50.734;7.086;2023-04-30T13:57:44;20.16;43.20
68801;SHT31;55784;50.734;7.086;2023-04-30T14:00:11;20.30;44.46
68801;SHT31;55784;50.734;7.086;2023-04-30T14:02:37;20.37;43.94
68801;SHT31;55784;50.734;7.086;2023-04-30T14:05:02;20.52;43.50
68801;SHT31;55784;50.734;7.086;2023-04-30T14:07:29;20.43;43.10
68801;SHT31;55784;50.734;7.086;2023-04-30T14:09:58;20.50;43.17
68801;SHT31;55784;50.734;7.086;2023-04-30T14:12:26;20.47;43.50
68801;SHT31;55784;50.734;7.086;2023-04-30T14:14:55;20.54;41.78
68801;SHT31;55784;50.734;7.086;2023-04-30T14:17:21;20.32;43.23
68801;SHT31;55784;50.734;7.086;2023-04-30T14:19:46;20.32;43.27
68801;SHT31;55784;50.734;7.086;2023-04-30T14:22:12;20.87;41.78
68801;SHT31;55784;50.734;7.086;2023-04-30T14:24:37;21.21;40.17
68801;SHT31;55784;50.734;7.086;2023-04-30T14:27:03;21.30;40.03
68801;SHT31;55784;50.734;7.086;2023-04-30T14:29:31;21.04;40.89
68801;SHT31;55784;50.734;7.086;2023-04-30T14:31:57;21.17;41.16
68801;SHT31;55784;50.734;7.086;2023-04-30T14:34:22;21.15;40.80
68801;SHT31;55784;50.734;7.086;2023-04-30T14:36:48;20.64;42.97
68801;SHT31;55784;50.734;7.086;2023-04-30T14:39:14;20.60;42.32
68801;SHT31;55784;50.734;7.086;2023-04-30T14:41:42;20.33;43.05
68801;SHT31;55784;50.734;7.086;2023-04-30T14:44:11;20.12;42.78
68801;SHT31;55784;50.734;7.086;2023-04-30T14:46:39;20.40;42.88
68801;SHT31;55784;50.734;7.086;2023-04-30T14:49:10;20.64;42.46
68801;SHT31;55784;50.734;7.086;2023-04-30T14:51:36;20.96;41.97
68801;SHT31;55784;50.734;7.086;2023-04-30T14:57:27;20.98;41.57
68801;SHT31;55784;50.734;7.086;2023-04-30T15:00:18;20.86;41.22
68801;SHT31;55784;50.734;7.086;2023-04-30T15:03:02;21.20;40.17
68801;SHT31;55784;50.734;7.086;2023-04-30T15:05:31;21.00;40.32
68801;SHT31;55784;50.734;7.086;2023-04-30T15:07:59;20.91;41.08
68801;SHT31;55784;50.734;7.086;2023-04-30T15:10:48;21.03;41.16
68801;SHT31;55784;50.734;7.086;2023-04-30T15:13:14;21.10;40.07
68801;SHT31;55784;50.734;7.086;2023-04-30T15:23:23;20.91;39.76
68801;SHT31;55784;50.734;7.086;2023-04-30T15:25:48;21.23;39.75
68801;SHT31;55784;50.734;7.086;2023-04-30T15:33:24;21.44;39.90
68801;SHT31;55784;50.734;7.086;2023-04-30T15:35:52;21.44;39.16
68801;SHT31;55784;50.734;7.086;2023-04-30T15:38:18;21.30;39.53
68801;SHT31;55784;50.734;7.086;2023-04-30T15:40:44;21.32;39.85
68801;SHT31;55784;50.734;7.086;2023-04-30T15:43:11;21.62;39.38
68801;SHT31;55784;50.734;7.086;2023-04-30T15:45:38;21.83;39.08
68801;SHT31;55784;50.734;7.086;2023-04-30T15:48:04;21.49;38.75
68801;SHT31;55784;50.734;7.086;2023-04-30T15:50:32;21.11;39.82
68801;SHT31;55784;50.734;7.086;2023-04-30T15:52:57;21.04;40.33
68801;SHT31;55784;50.734;7.086;2023-04-30T15:55:27;21.07;40.34
68801;SHT31;55784;50.734;7.086;2023-04-30T15:57:52;20.66;41.00
68801;SHT31;55784;50.734;7.086;2023-04-30T16:00:19;20.90;40.97
68801;SHT31;55784;50.734;7.086;2023-04-30T16:02:45;21.03;40.49
68801;SHT31;55784;50.734;7.086;2023-04-30T16:05:10;21.18;40.55
68801;SHT31;55784;50.734;7.086;2023-04-30T16:07:36;21.27;40.39
68801;SHT31;55784;50.734;7.086;2023-04-30T16:10:02;21.34;39.75
68801;SHT31;55784;50.734;7.086;2023-04-30T16:12:28;21.41;39.29